createdAt,value
2022-10-13T00:00:24.889Z,5.37
2022-10-13T00:03:26.134Z,5.32
2022-10-13T00:06:14.105Z,5.24
2022-10-13T00:16:42.222Z,5.08
2022-10-13T00:20:06.790Z,5.04
2022-10-13T00:23:03.510Z,4.95
2022-10-13T00:26:06.101Z,4.91
2022-10-13T00:29:03.691Z,4.86
2022-10-13T00:32:06.494Z,4.83
2022-10-13T00:34:53.730Z,4.79
2022-10-13T00:37:44.046Z,4.70
2022-10-13T00:40:48.595Z,4.64
2022-10-13T00:44:13.590Z,4.59
2022-10-13T00:46:58.197Z,4.56
2022-10-13T00:49:43.041Z,4.57
2022-10-13T00:52:27.048Z,4.58
2022-10-13T00:55:18.170Z,4.57
2022-10-13T00:58:12.863Z,4.55
2022-10-13T01:01:28.075Z,4.58
2022-10-13T01:04:38.266Z,4.59
2022-10-13T01:07:33.722Z,4.59
2022-10-13T01:10:24.862Z,4.59
2022-10-13T01:13:53.352Z,4.59
2022-10-13T01:16:48.442Z,4.61
2022-10-13T01:20:06.445Z,4.60
2022-10-13T01:23:01.661Z,4.58
2022-10-13T01:26:02.219Z,4.59
2022-10-13T01:29:10.435Z,4.59
2022-10-13T01:32:21.594Z,4.60
2022-10-13T01:35:45.568Z,4.57
2022-10-13T01:38:48.949Z,4.49
2022-10-13T01:42:12.484Z,4.39
2022-10-13T01:45:21.292Z,4.34
2022-10-13T01:48:04.716Z,4.35
2022-10-13T01:51:13.477Z,4.36
2022-10-13T01:54:37.607Z,4.36
2022-10-13T01:57:38.771Z,4.34
2022-10-13T02:00:34.841Z,4.33
2022-10-13T02:03:25.596Z,4.31
2022-10-13T02:06:36.680Z,4.26
2022-10-13T02:13:21.547Z,4.28
2022-10-13T02:16:34.339Z,4.25
2022-10-13T02:19:45.494Z,4.20
2022-10-13T02:22:51.119Z,4.22
2022-10-13T02:25:38.577Z,4.27
2022-10-13T02:29:14.388Z,4.31
2022-10-13T02:32:01.504Z,4.32
2022-10-13T02:34:50.050Z,4.33
2022-10-13T02:37:39.924Z,4.34
2022-10-13T02:40:29.339Z,4.28
2022-10-13T02:43:13.239Z,4.27
2022-10-13T02:46:35.046Z,4.21
2022-10-13T02:49:07.351Z,4.18
2022-10-13T02:51:53.795Z,4.17
2022-10-13T02:54:47.040Z,4.20
2022-10-13T02:57:31.574Z,4.27
2022-10-13T03:00:11.200Z,4.31
2022-10-13T03:02:49.827Z,4.24
2022-10-13T03:05:47.624Z,4.20
2022-10-13T03:08:37.312Z,4.18
2022-10-13T03:11:28.072Z,4.21
2022-10-13T03:14:25.857Z,4.22
2022-10-13T03:17:47.548Z,4.20
2022-10-13T03:20:32.552Z,4.15
2022-10-13T03:23:27.017Z,4.07
2022-10-13T03:26:27.039Z,4.05
2022-10-13T03:29:19.421Z,4.02
2022-10-13T03:32:04.040Z,3.97
2022-10-13T03:34:53.173Z,3.96
2022-10-13T03:37:59.683Z,3.94
2022-10-13T03:40:56.036Z,3.90
2022-10-13T03:43:51.240Z,3.87
2022-10-13T03:46:47.172Z,3.86
2022-10-13T03:49:58.335Z,3.84
2022-10-13T03:52:33.467Z,3.81
2022-10-13T03:55:30.209Z,3.79
2022-10-13T03:58:24.879Z,3.76
2022-10-13T04:01:18.035Z,3.75
2022-10-13T04:04:02.615Z,3.69
2022-10-13T04:06:54.315Z,3.64
2022-10-13T04:09:51.011Z,3.56
2022-10-13T04:12:27.239Z,3.55
2022-10-13T04:15:20.661Z,3.54
2022-10-13T04:18:18.996Z,3.55
2022-10-13T04:21:00.374Z,3.56
2022-10-13T04:24:04.855Z,3.58
2022-10-13T04:26:47.715Z,3.56
2022-10-13T04:29:47.581Z,3.54
2022-10-13T04:32:44.596Z,3.53
2022-10-13T04:35:35.896Z,3.55
2022-10-13T04:38:14.482Z,3.57
2022-10-13T04:41:16.626Z,3.57
2022-10-13T04:43:58.494Z,3.55
2022-10-13T04:47:07.239Z,3.53
2022-10-13T04:49:43.983Z,3.54
2022-10-13T04:52:44.191Z,3.54
2022-10-13T04:55:41.977Z,3.57
2022-10-13T04:58:42.029Z,3.54
2022-10-13T05:02:10.779Z,3.53
2022-10-13T05:04:55.243Z,3.49
2022-10-13T05:07:37.357Z,3.47
2022-10-13T05:10:23.871Z,3.46
2022-10-13T05:13:08.007Z,3.44
2022-10-13T05:15:56.303Z,3.46
2022-10-13T05:18:43.567Z,3.51
2022-10-13T05:21:37.718Z,3.56
2022-10-13T05:27:20.777Z,3.64
2022-10-13T05:29:58.168Z,3.64
2022-10-13T05:32:39.103Z,3.65
2022-10-13T05:35:17.667Z,3.72
2022-10-13T05:37:54.841Z,3.78
2022-10-13T05:40:34.810Z,3.80
2022-10-13T05:43:15.328Z,3.81
2022-10-13T05:45:48.562Z,3.82
2022-10-13T05:48:30.356Z,3.83
2022-10-13T05:51:15.127Z,3.85
2022-10-13T06:02:46.570Z,4.02
2022-10-13T06:05:53.889Z,4.04
2022-10-13T06:08:27.166Z,4.09
2022-10-13T06:11:16.382Z,4.14
2022-10-13T06:13:52.636Z,4.20
2022-10-13T06:16:28.840Z,4.28
2022-10-13T06:19:07.344Z,4.37
2022-10-13T06:21:38.816Z,4.45
2022-10-13T06:24:36.971Z,4.51
2022-10-13T06:27:18.183Z,4.60
2022-10-13T06:30:00.620Z,4.66
2022-10-13T06:32:47.075Z,4.74
2022-10-13T06:35:45.297Z,4.84
2022-10-13T06:38:30.838Z,4.97
2022-10-13T06:41:14.845Z,5.09
2022-10-13T06:43:51.391Z,5.19
2022-10-13T06:46:44.119Z,5.33
2022-10-13T06:49:27.666Z,5.48
2022-10-13T06:52:07.149Z,5.63
2022-10-13T06:54:38.882Z,5.78
2022-10-13T06:57:30.340Z,5.91
2022-10-13T07:00:38.738Z,6.03
2022-10-13T07:03:21.954Z,6.17
2022-10-13T07:06:03.722Z,6.29
2022-10-13T07:08:45.070Z,6.40
2022-10-13T07:11:16.594Z,6.51
2022-10-13T07:14:13.291Z,6.62
2022-10-13T07:16:52.435Z,6.75
2022-10-13T07:19:20.978Z,6.88
2022-10-13T07:22:26.269Z,7.01
2022-10-13T07:25:11.147Z,7.14
2022-10-13T07:28:10.308Z,7.24
2022-10-13T07:30:46.109Z,7.33
2022-10-13T07:33:41.072Z,7.41
2022-10-13T07:36:28.640Z,7.51
2022-10-13T07:39:01.218Z,7.62
2022-10-13T07:41:41.939Z,7.69
2022-10-13T07:44:29.010Z,7.75
2022-10-13T07:47:09.017Z,7.82
2022-10-13T07:49:47.088Z,7.92
2022-10-13T07:52:22.336Z,8.05
2022-10-13T07:55:19.912Z,8.18
2022-10-13T07:58:01.100Z,8.27
2022-10-13T08:00:34.985Z,8.35
2022-10-13T08:03:10.772Z,8.45
2022-10-13T08:05:50.798Z,8.57
2022-10-13T08:08:58.626Z,8.68
2022-10-13T08:11:31.390Z,8.83
2022-10-13T08:14:03.471Z,8.96
2022-10-13T08:16:40.222Z,9.04
2022-10-13T08:19:21.917Z,9.12
2022-10-13T08:22:12.210Z,9.22
2022-10-13T08:25:08.331Z,9.33
2022-10-13T08:27:50.694Z,9.44
2022-10-13T08:30:33.774Z,9.60
2022-10-13T08:33:06.269Z,9.74
2022-10-13T08:35:43.648Z,9.89
2022-10-13T08:38:20.613Z,10.02
2022-10-13T08:41:16.272Z,10.12
2022-10-13T08:44:39.505Z,10.20
2022-10-13T08:47:14.073Z,10.31
2022-10-13T08:49:56.547Z,10.43
2022-10-13T08:52:55.696Z,10.53
2022-10-13T08:55:34.132Z,10.67
2022-10-13T08:58:26.286Z,10.80
2022-10-13T09:01:27.140Z,10.93
2022-10-13T09:04:12.972Z,11.04
2022-10-13T09:07:05.485Z,11.10
2022-10-13T09:09:51.935Z,11.17
2022-10-13T09:12:26.980Z,11.28
2022-10-13T09:15:17.063Z,11.43
2022-10-13T09:18:48.836Z,11.57
2022-10-13T09:21:42.721Z,11.67
2022-10-13T09:24:42.756Z,11.78
2022-10-13T09:27:22.886Z,11.89
2022-10-13T09:30:31.792Z,11.96
2022-10-13T09:33:18.826Z,12.10
2022-10-13T09:36:28.789Z,12.22
2022-10-13T09:39:27.491Z,12.32
2022-10-13T09:42:21.213Z,12.38
2022-10-13T09:45:22.887Z,12.41
2022-10-13T09:48:20.558Z,12.43
2022-10-13T09:50:59.296Z,12.47
2022-10-13T09:53:47.135Z,12.51
2022-10-13T09:56:49.905Z,12.59
2022-10-13T09:59:43.171Z,12.70
2022-10-13T10:02:32.943Z,12.78
2022-10-13T10:05:54.870Z,12.77
2022-10-13T10:08:33.680Z,12.77
2022-10-13T10:11:15.084Z,12.87
2022-10-13T10:13:54.969Z,13.03
2022-10-13T10:16:43.058Z,13.49
2022-10-13T10:19:46.221Z,14.09
2022-10-13T10:22:52.878Z,14.80
2022-10-13T10:26:02.274Z,15.15
2022-10-13T10:29:54.262Z,15.33
2022-10-13T10:32:58.570Z,15.83
2022-10-13T10:36:16.609Z,15.48
2022-10-13T10:39:08.655Z,15.09
2022-10-13T10:42:00.500Z,15.31
2022-10-13T10:44:56.209Z,15.18
2022-10-13T10:47:46.574Z,15.02
2022-10-13T10:50:26.416Z,14.83
2022-10-13T10:53:17.107Z,14.62
2022-10-13T10:56:17.951Z,14.50
2022-10-13T10:58:52.726Z,14.44
2022-10-13T11:01:53.211Z,14.34
2022-10-13T11:04:42.206Z,14.22
2022-10-13T11:07:21.750Z,14.17
2022-10-13T11:09:50.370Z,14.06
2022-10-13T11:12:21.497Z,14.00
2022-10-13T11:15:11.719Z,14.03
2022-10-13T11:17:41.862Z,14.07
2022-10-13T11:20:30.757Z,14.13
2022-10-13T11:22:59.062Z,14.15
2022-10-13T11:25:40.437Z,14.04
2022-10-13T11:28:40.542Z,14.04
2022-10-13T11:31:16.417Z,14.03
2022-10-13T11:33:48.500Z,14.08
2022-10-13T11:36:37.476Z,14.17
2022-10-13T11:39:40.271Z,14.18
2022-10-13T11:42:53.326Z,14.49
2022-10-13T11:46:00.135Z,14.82
2022-10-13T11:48:39.045Z,14.95
2022-10-13T11:51:23.739Z,14.90
2022-10-13T11:54:00.697Z,15.11
2022-10-13T11:56:48.701Z,15.23
2022-10-13T11:59:23.022Z,15.29
2022-10-13T12:02:06.699Z,15.25
2022-10-13T12:04:46.665Z,15.92
2022-10-13T12:07:16.157Z,16.58
2022-10-13T12:10:13.200Z,16.67
2022-10-13T12:12:50.010Z,16.77
2022-10-13T12:16:08.838Z,17.38
2022-10-13T12:18:40.790Z,17.85
2022-10-13T12:21:31.472Z,18.01
2022-10-13T12:24:21.483Z,18.26
2022-10-13T12:26:50.199Z,18.55
2022-10-13T12:29:20.223Z,18.42
2022-10-13T12:31:59.924Z,18.37
2022-10-13T12:34:34.882Z,18.59
2022-10-13T12:37:36.550Z,18.42
2022-10-13T12:40:06.377Z,18.06
2022-10-13T12:42:40.575Z,17.88
2022-10-13T12:45:20.567Z,17.93
2022-10-13T12:47:56.386Z,17.99
2022-10-13T12:50:45.369Z,18.12
2022-10-13T12:53:17.226Z,18.42
2022-10-13T12:56:02.447Z,18.71
2022-10-13T12:58:33.083Z,18.85
2022-10-13T13:01:08.422Z,18.57
2022-10-13T13:03:38.636Z,18.18
2022-10-13T13:06:13.779Z,18.07
2022-10-13T13:08:44.612Z,17.90
2022-10-13T13:11:34.076Z,17.82
2022-10-13T13:14:38.026Z,18.12
2022-10-13T13:17:17.347Z,18.58
2022-10-13T13:19:55.232Z,18.70
2022-10-13T13:22:26.344Z,18.84
2022-10-13T13:24:59.905Z,18.83
2022-10-13T13:27:46.715Z,18.74
2022-10-13T13:30:18.354Z,18.62
2022-10-13T13:32:46.743Z,18.21
2022-10-13T13:35:15.141Z,17.84
2022-10-13T13:37:49.705Z,17.34
2022-10-13T13:40:34.690Z,16.83
2022-10-13T13:43:03.145Z,16.15
2022-10-13T13:45:37.206Z,15.71
2022-10-13T13:48:06.491Z,15.40
2022-10-13T13:50:36.090Z,15.20
2022-10-13T13:53:05.896Z,15.02
2022-10-13T13:55:38.066Z,14.78
2022-10-13T13:58:15.369Z,14.64
2022-10-13T14:00:51.215Z,14.53
2022-10-13T14:03:40.207Z,14.41
2022-10-13T14:06:11.611Z,14.30
2022-10-13T14:08:43.221Z,14.19
2022-10-13T14:11:11.141Z,14.09
2022-10-13T14:13:45.345Z,14.00
2022-10-13T14:16:29.610Z,13.94
2022-10-13T14:18:57.672Z,13.91
2022-10-13T14:21:25.538Z,13.88
2022-10-13T14:23:56.688Z,13.81
2022-10-13T14:26:24.768Z,13.75
2022-10-13T14:28:52.985Z,13.68
2022-10-13T14:31:20.496Z,13.63
2022-10-13T14:33:52.011Z,13.57
2022-10-13T14:36:22.077Z,13.53
2022-10-13T14:38:51.841Z,13.46
2022-10-13T14:41:19.481Z,13.39
2022-10-13T14:43:47.279Z,13.34
2022-10-13T14:46:17.112Z,13.30
2022-10-13T14:48:57.198Z,13.24
2022-10-13T14:51:26.686Z,13.18
2022-10-13T14:53:55.972Z,13.13
2022-10-13T14:56:31.436Z,13.09
2022-10-13T14:59:01.947Z,13.03
2022-10-13T15:01:33.683Z,12.96
2022-10-13T15:04:14.578Z,12.90
2022-10-13T15:06:43.134Z,12.83
2022-10-13T15:09:12.159Z,12.79
2022-10-13T15:11:42.563Z,12.81
2022-10-13T15:14:11.275Z,12.76
2022-10-13T15:16:43.048Z,12.69
2022-10-13T15:19:13.979Z,12.62
2022-10-13T15:21:54.038Z,12.53
2022-10-13T15:24:22.823Z,12.43
2022-10-13T15:26:50.647Z,12.34
2022-10-13T15:29:29.594Z,12.27
2022-10-13T15:32:18.495Z,12.19
2022-10-13T15:34:59.006Z,12.10
2022-10-13T15:37:43.383Z,11.97
2022-10-13T15:40:12.393Z,11.84
2022-10-13T15:42:47.011Z,11.74
2022-10-13T15:45:15.748Z,11.65
2022-10-13T15:47:43.107Z,11.57
2022-10-13T15:50:12.413Z,11.50
2022-10-13T15:52:53.053Z,11.43
2022-10-13T15:55:21.420Z,11.33
2022-10-13T15:57:52.872Z,11.23
2022-10-13T16:00:22.154Z,11.15
2022-10-13T16:03:09.287Z,11.09
2022-10-13T16:06:17.439Z,11.04
2022-10-13T16:09:06.996Z,10.95
2022-10-13T16:11:52.809Z,10.87
2022-10-13T16:14:32.556Z,10.80
2022-10-13T16:20:18.964Z,10.64
2022-10-13T16:22:52.934Z,10.58
2022-10-13T16:25:40.383Z,10.52
2022-10-13T16:28:07.746Z,10.44
2022-10-13T16:33:46.178Z,10.33
2022-10-13T16:36:48.372Z,10.26
2022-10-13T16:39:21.830Z,10.20
2022-10-13T16:42:22.948Z,10.11
2022-10-13T16:44:54.961Z,10.07
2022-10-13T16:48:15.811Z,10.01
2022-10-13T16:53:41.564Z,9.92
2022-10-13T16:56:31.213Z,9.90
2022-10-13T16:59:11.265Z,9.89
2022-10-13T17:01:58.706Z,9.87
2022-10-13T17:04:30.387Z,9.85
2022-10-13T17:07:00.986Z,9.80
2022-10-13T17:09:51.733Z,9.76
2022-10-13T17:12:24.181Z,9.71
2022-10-13T17:15:16.286Z,9.65
2022-10-13T17:18:35.650Z,9.58
2022-10-13T17:21:13.411Z,9.53
2022-10-13T17:23:59.014Z,9.50
2022-10-13T17:26:37.486Z,9.49
2022-10-13T17:29:13.784Z,9.48
2022-10-13T17:31:46.049Z,9.46
2022-10-13T17:34:16.869Z,9.44
2022-10-13T17:36:52.641Z,9.40
2022-10-13T17:39:20.951Z,9.36
2022-10-13T17:41:59.645Z,9.32
2022-10-13T17:44:54.753Z,9.24
2022-10-13T17:50:26.449Z,9.17
2022-10-13T17:53:29.431Z,9.15
2022-10-13T17:56:13.090Z,9.15
2022-10-13T17:58:59.006Z,9.14
2022-10-13T18:01:51.143Z,9.11
2022-10-13T18:04:31.479Z,9.07
2022-10-13T18:09:53.517Z,8.98
2022-10-13T18:13:01.029Z,8.93
2022-10-13T18:15:29.464Z,8.87
2022-10-13T18:18:03.344Z,8.83
2022-10-13T18:20:32.352Z,8.81
2022-10-13T18:23:01.817Z,8.79
2022-10-13T18:25:34.715Z,8.75
2022-10-13T18:28:03.631Z,8.71
2022-10-13T18:30:32.920Z,8.68
2022-10-13T18:33:11.948Z,8.65
2022-10-13T18:35:59.944Z,8.63
2022-10-13T18:38:41.743Z,8.60
2022-10-13T18:41:20.671Z,8.56
2022-10-13T18:47:29.240Z,8.47
2022-10-13T18:50:24.930Z,8.43
2022-10-13T18:53:14.425Z,8.41
2022-10-13T18:56:28.603Z,8.38
2022-10-13T18:59:06.712Z,8.36
2022-10-13T19:01:45.690Z,8.32
2022-10-13T19:04:25.975Z,8.29
2022-10-13T19:07:12.296Z,8.26
2022-10-13T19:09:49.045Z,8.22
2022-10-13T19:12:40.753Z,8.19
2022-10-13T19:15:35.160Z,8.17
2022-10-13T19:18:28.106Z,8.18
2022-10-13T19:21:03.143Z,8.18
2022-10-13T19:23:33.288Z,8.16
2022-10-13T19:26:34.155Z,8.14
2022-10-13T19:29:50.646Z,8.10
2022-10-13T19:32:34.955Z,8.05
2022-10-13T19:35:05.902Z,8.03
2022-10-13T19:38:14.186Z,8.02
2022-10-13T19:40:49.580Z,8.01
2022-10-13T19:43:24.371Z,7.97
2022-10-13T19:46:35.700Z,7.94
2022-10-13T19:49:39.640Z,7.91
2022-10-13T19:52:52.463Z,7.86
2022-10-13T19:55:24.185Z,7.82
2022-10-13T19:57:58.921Z,7.78
2022-10-13T20:03:36.912Z,7.74
2022-10-13T20:06:16.816Z,7.72
2022-10-13T20:09:15.648Z,7.68
2022-10-13T20:12:03.598Z,7.61
2022-10-13T20:14:43.231Z,7.58
2022-10-13T20:17:20.923Z,7.57
2022-10-13T20:19:59.672Z,7.55
2022-10-13T20:22:41.120Z,7.54
2022-10-13T20:25:22.023Z,7.53
2022-10-13T20:28:13.260Z,7.49
2022-10-13T20:30:58.831Z,7.45
2022-10-13T20:33:45.235Z,7.45
2022-10-13T20:36:28.437Z,7.44
2022-10-13T20:38:59.641Z,7.40
2022-10-13T20:41:32.537Z,7.36
2022-10-13T20:44:04.143Z,7.33
2022-10-13T20:47:25.165Z,7.29
2022-10-13T20:49:58.618Z,7.26
2022-10-13T20:52:30.509Z,7.21
2022-10-13T20:55:07.663Z,7.18
2022-10-13T20:57:42.803Z,7.17
2022-10-13T21:00:16.603Z,7.14
2022-10-13T21:03:01.883Z,7.10
2022-10-13T21:06:17.498Z,7.06
2022-10-13T21:08:50.583Z,7.01
2022-10-13T21:11:39.830Z,6.95
2022-10-13T21:14:28.480Z,6.91
2022-10-13T21:17:07.778Z,6.90
2022-10-13T21:20:02.226Z,6.90
2022-10-13T21:22:33.552Z,6.87
2022-10-13T21:25:36.028Z,6.82
2022-10-13T21:28:11.368Z,6.75
2022-10-13T21:30:39.941Z,6.70
2022-10-13T21:33:18.303Z,6.66
2022-10-13T21:36:20.609Z,6.63
2022-10-13T21:38:54.814Z,6.59
2022-10-13T21:41:29.695Z,6.58
2022-10-13T21:44:20.511Z,6.57
2022-10-13T21:47:01.206Z,6.55
2022-10-13T21:49:34.635Z,6.53
2022-10-13T21:52:24.106Z,6.51
2022-10-13T21:55:22.634Z,6.50
2022-10-13T21:57:54.157Z,6.49
2022-10-13T22:00:35.882Z,6.49
2022-10-13T22:03:06.148Z,6.49
2022-10-13T22:06:15.867Z,6.48
2022-10-13T22:08:51.675Z,6.47
2022-10-13T22:11:33.448Z,6.45
2022-10-13T22:14:19.547Z,6.44
2022-10-13T22:16:50.848Z,6.41
2022-10-13T22:19:23.787Z,6.37
2022-10-13T22:21:52.874Z,6.36
2022-10-13T22:24:24.211Z,6.36
2022-10-13T22:26:53.109Z,6.35
2022-10-13T22:30:08.127Z,6.32
2022-10-13T22:32:46.685Z,6.29
2022-10-13T22:35:23.369Z,6.27
2022-10-13T22:37:57.839Z,6.24
2022-10-13T22:40:25.693Z,6.21
2022-10-13T22:43:22.964Z,6.20
2022-10-13T22:45:57.321Z,6.13
2022-10-13T22:48:45.367Z,6.10
2022-10-13T22:51:33.258Z,6.07
2022-10-13T22:54:13.976Z,6.05
2022-10-13T22:56:45.152Z,6.03
2022-10-13T22:59:33.529Z,6.00
2022-10-13T23:02:05.016Z,6.01
2022-10-13T23:04:53.355Z,5.99
2022-10-13T23:07:29.072Z,5.94
2022-10-13T23:09:58.218Z,5.92
2022-10-13T23:12:30.963Z,5.91
2022-10-13T23:15:05.194Z,5.92
2022-10-13T23:17:34.359Z,5.94
2022-10-13T23:20:13.231Z,5.93
2022-10-13T23:22:43.035Z,5.94
2022-10-13T23:25:12.363Z,5.96
2022-10-13T23:27:45.789Z,5.97
2022-10-13T23:30:19.687Z,6.01
2022-10-13T23:32:47.953Z,6.04
2022-10-13T23:35:35.959Z,6.06
2022-10-13T23:38:09.205Z,6.06
2022-10-13T23:40:37.275Z,6.07
2022-10-13T23:43:10.451Z,6.07
2022-10-13T23:45:46.063Z,6.08
2022-10-13T23:48:17.840Z,6.10
2022-10-13T23:50:54.029Z,6.11
2022-10-13T23:53:33.124Z,6.10
2022-10-13T23:56:03.730Z,6.12
2022-10-13T23:58:32.804Z,6.13
